sensor_id;sensor_type;location;lat;lon;timestamp;temperature;humidity
47168;DHT22;32931;47.778;17.806;2022-10-16T00:02:09;16.00;99.90
47168;DHT22;32931;47.778;17.806;2022-10-16T00:04:35;16.00;99.90
47168;DHT22;32931;47.778;17.806;2022-10-16T00:07:02;16.00;99.90
47168;DHT22;32931;47.778;17.806;2022-10-16T00:09:28;15.90;99.90
47168;DHT22;32931;47.778;17.806;2022-10-16T00:11:54;16.00;99.90
47168;DHT22;32931;47.778;17.806;2022-10-16T00:14:20;15.90;99.90
47168;DHT22;32931;47.778;17.806;2022-10-16T00:16:46;15.90;99.90
47168;DHT22;32931;47.778;17.806;2022-10-16T00:19:13;15.90;99.90
47168;DHT22;32931;47.778;17.806;2022-10-16T00:21:39;15.90;99.90
47168;DHT22;32931;47.778;17.806;2022-10-16T00:24:08;15.80;99.90
47168;DHT22;32931;47.778;17.806;2022-10-16T00:26:35;15.80;99.90
47168;DHT22;32931;47.778;17.806;2022-10-16T00:29:03;15.80;99.90
47168;DHT22;32931;47.778;17.806;2022-10-16T00:31:29;15.80;99.90
47168;DHT22;32931;47.778;17.806;2022-10-16T00:33:56;15.80;99.90
47168;DHT22;32931;47.778;17.806;2022-10-16T00:36:24;15.80;99.90
47168;DHT22;32931;47.778;17.806;2022-10-16T00:38:52;15.70;99.90
47168;DHT22;32931;47.778;17.806;2022-10-16T00:41:23;15.70;99.90
47168;DHT22;32931;47.778;17.806;2022-10-16T00:43:58;15.70;99.90
47168;DHT22;32931;47.778;17.806;2022-10-16T00:51:45;15.70;99.90
47168;DHT22;32931;47.778;17.806;2022-10-16T00:54:22;15.60;99.90
47168;DHT22;32931;47.778;17.806;2022-10-16T00:56:49;15.60;99.90
47168;DHT22;32931;47.778;17.806;2022-10-16T00:59:25;15.60;99.90
47168;DHT22;32931;47.778;17.806;2022-10-16T01:01:53;15.60;99.90
47168;DHT22;32931;47.778;17.806;2022-10-16T01:04:20;15.60;99.90
47168;DHT22;32931;47.778;17.806;2022-10-16T01:10:49;15.50;99.90
47168;DHT22;32931;47.778;17.806;2022-10-16T01:13:06;15.50;99.90
47168;DHT22;32931;47.778;17.806;2022-10-16T01:15:48;15.50;99.90
47168;DHT22;32931;47.778;17.806;2022-10-16T01:18:39;15.50;99.90
47168;DHT22;32931;47.778;17.806;2022-10-16T01:21:25;15.40;99.90
47168;DHT22;32931;47.778;17.806;2022-10-16T01:32:33;15.20;99.90
47168;DHT22;32931;47.778;17.806;2022-10-16T01:35:04;15.20;99.90
47168;DHT22;32931;47.778;17.806;2022-10-16T01:40:11;15.20;99.90
47168;DHT22;32931;47.778;17.806;2022-10-16T01:42:59;15.20;99.90
47168;DHT22;32931;47.778;17.806;2022-10-16T01:45:28;15.20;99.90
47168;DHT22;32931;47.778;17.806;2022-10-16T01:47:56;15.10;99.90
47168;DHT22;32931;47.778;17.806;2022-10-16T01:50:24;15.10;99.90
47168;DHT22;32931;47.778;17.806;2022-10-16T01:52:52;15.10;99.90
47168;DHT22;32931;47.778;17.806;2022-10-16T01:55:24;15.10;99.90
47168;DHT22;32931;47.778;17.806;2022-10-16T01:57:52;15.10;99.90
47168;DHT22;32931;47.778;17.806;2022-10-16T02:00:21;15.10;99.90
47168;DHT22;32931;47.778;17.806;2022-10-16T02:02:49;15.10;99.90
47168;DHT22;32931;47.778;17.806;2022-10-16T02:05:53;15.10;99.90
47168;DHT22;32931;47.778;17.806;2022-10-16T02:08:23;15.00;99.90
47168;DHT22;32931;47.778;17.806;2022-10-16T02:10:50;15.00;99.90
47168;DHT22;32931;47.778;17.806;2022-10-16T02:13:39;14.90;99.90
47168;DHT22;32931;47.778;17.806;2022-10-16T02:16:08;14.90;99.90
47168;DHT22;32931;47.778;17.806;2022-10-16T02:18:35;14.90;99.90
47168;DHT22;32931;47.778;17.806;2022-10-16T02:21:02;14.80;99.90
47168;DHT22;32931;47.778;17.806;2022-10-16T02:23:47;14.80;99.90
47168;DHT22;32931;47.778;17.806;2022-10-16T02:26:27;14.80;99.90
47168;DHT22;32931;47.778;17.806;2022-10-16T02:28:59;14.80;99.90
47168;DHT22;32931;47.778;17.806;2022-10-16T02:31:31;14.70;99.90
47168;DHT22;32931;47.778;17.806;2022-10-16T02:34:00;14.70;99.90
47168;DHT22;32931;47.778;17.806;2022-10-16T02:36:27;14.70;99.90
47168;DHT22;32931;47.778;17.806;2022-10-16T02:38:54;14.80;99.90
47168;DHT22;32931;47.778;17.806;2022-10-16T02:41:22;14.70;99.90
47168;DHT22;32931;47.778;17.806;2022-10-16T02:43:48;14.70;99.90
47168;DHT22;32931;47.778;17.806;2022-10-16T02:46:15;14.70;99.90
47168;DHT22;32931;47.778;17.806;2022-10-16T02:48:43;14.70;99.90
47168;DHT22;32931;47.778;17.806;2022-10-16T02:51:09;14.70;99.90
47168;DHT22;32931;47.778;17.806;2022-10-16T02:53:35;14.70;99.90
47168;DHT22;32931;47.778;17.806;2022-10-16T02:56:01;14.70;99.90
47168;DHT22;32931;47.778;17.806;2022-10-16T02:58:27;14.70;99.90
47168;DHT22;32931;47.778;17.806;2022-10-16T03:00:55;14.70;99.90
47168;DHT22;32931;47.778;17.806;2022-10-16T03:03:21;14.70;99.90
47168;DHT22;32931;47.778;17.806;2022-10-16T03:05:47;14.70;99.90
47168;DHT22;32931;47.778;17.806;2022-10-16T03:08:14;14.70;99.90
47168;DHT22;32931;47.778;17.806;2022-10-16T03:10:40;14.60;99.90
47168;DHT22;32931;47.778;17.806;2022-10-16T03:13:06;14.70;99.90
47168;DHT22;32931;47.778;17.806;2022-10-16T03:15:32;14.60;99.90
47168;DHT22;32931;47.778;17.806;2022-10-16T03:17:58;14.60;99.90
47168;DHT22;32931;47.778;17.806;2022-10-16T03:20:25;14.60;99.90
47168;DHT22;32931;47.778;17.806;2022-10-16T03:22:52;14.60;99.90
47168;DHT22;32931;47.778;17.806;2022-10-16T03:25:18;14.60;99.90
47168;DHT22;32931;47.778;17.806;2022-10-16T03:27:44;14.60;99.90
47168;DHT22;32931;47.778;17.806;2022-10-16T03:30:11;14.60;99.90
47168;DHT22;32931;47.778;17.806;2022-10-16T03:32:37;14.60;99.90
47168;DHT22;32931;47.778;17.806;2022-10-16T03:35:03;14.60;99.90
47168;DHT22;32931;47.778;17.806;2022-10-16T03:37:30;14.60;99.90
47168;DHT22;32931;47.778;17.806;2022-10-16T03:39:56;14.60;99.90
47168;DHT22;32931;47.778;17.806;2022-10-16T03:42:22;14.60;99.90
47168;DHT22;32931;47.778;17.806;2022-10-16T03:44:48;14.60;99.90
47168;DHT22;32931;47.778;17.806;2022-10-16T03:47:14;14.60;99.90
47168;DHT22;32931;47.778;17.806;2022-10-16T03:49:40;14.60;99.90
47168;DHT22;32931;47.778;17.806;2022-10-16T03:52:07;14.60;99.90
47168;DHT22;32931;47.778;17.806;2022-10-16T03:54:33;14.60;99.90
47168;DHT22;32931;47.778;17.806;2022-10-16T03:56:59;14.60;99.90
47168;DHT22;32931;47.778;17.806;2022-10-16T03:59:25;14.60;99.90
47168;DHT22;32931;47.778;17.806;2022-10-16T04:01:51;14.50;99.90
47168;DHT22;32931;47.778;17.806;2022-10-16T04:04:17;14.50;99.90
47168;DHT22;32931;47.778;17.806;2022-10-16T04:06:43;14.50;99.90
47168;DHT22;32931;47.778;17.806;2022-10-16T04:09:10;14.50;99.90
47168;DHT22;32931;47.778;17.806;2022-10-16T04:11:36;14.50;99.90
47168;DHT22;32931;47.778;17.806;2022-10-16T04:14:02;14.50;99.90
47168;DHT22;32931;47.778;17.806;2022-10-16T04:16:28;14.50;99.90
47168;DHT22;32931;47.778;17.806;2022-10-16T04:18:54;14.50;99.90
47168;DHT22;32931;47.778;17.806;2022-10-16T04:21:20;14.40;99.90
47168;DHT22;32931;47.778;17.806;2022-10-16T04:23:47;14.40;99.90
47168;DHT22;32931;47.778;17.806;2022-10-16T04:26:13;14.40;99.90
47168;DHT22;32931;47.778;17.806;2022-10-16T04:28:39;14.40;99.90
47168;DHT22;32931;47.778;17.806;2022-10-16T04:31:06;14.40;99.90
47168;DHT22;32931;47.778;17.806;2022-10-16T04:33:33;14.40;99.90
47168;DHT22;32931;47.778;17.806;2022-10-16T04:36:00;14.40;99.90
47168;DHT22;32931;47.778;17.806;2022-10-16T04:38:27;14.40;99.90
47168;DHT22;32931;47.778;17.806;2022-10-16T04:40:53;14.30;99.90
47168;DHT22;32931;47.778;17.806;2022-10-16T04:43:19;14.30;99.90
47168;DHT22;32931;47.778;17.806;2022-10-16T04:45:46;14.30;99.90
47168;DHT22;32931;47.778;17.806;2022-10-16T04:48:12;14.30;99.90
47168;DHT22;32931;47.778;17.806;2022-10-16T04:50:38;14.30;99.90
47168;DHT22;32931;47.778;17.806;2022-10-16T04:53:04;14.30;99.90
47168;DHT22;32931;47.778;17.806;2022-10-16T04:55:31;14.30;99.90
47168;DHT22;32931;47.778;17.806;2022-10-16T04:57:57;14.20;99.90
47168;DHT22;32931;47.778;17.806;2022-10-16T05:00:23;14.20;99.90
47168;DHT22;32931;47.778;17.806;2022-10-16T05:02:50;14.20;99.90
47168;DHT22;32931;47.778;17.806;2022-10-16T05:05:16;14.20;99.90
47168;DHT22;32931;47.778;17.806;2022-10-16T05:07:46;14.20;99.90
47168;DHT22;32931;47.778;17.806;2022-10-16T05:10:12;14.20;99.90
47168;DHT22;32931;47.778;17.806;2022-10-16T05:12:38;14.20;99.90
47168;DHT22;32931;47.778;17.806;2022-10-16T05:15:05;14.10;99.90
47168;DHT22;32931;47.778;17.806;2022-10-16T05:17:31;14.10;99.90
47168;DHT22;32931;47.778;17.806;2022-10-16T05:19:57;14.10;99.90
47168;DHT22;32931;47.778;17.806;2022-10-16T05:22:23;14.10;99.90
47168;DHT22;32931;47.778;17.806;2022-10-16T05:24:49;14.10;99.90
47168;DHT22;32931;47.778;17.806;2022-10-16T05:27:15;14.10;99.90
47168;DHT22;32931;47.778;17.806;2022-10-16T05:29:48;14.10;99.90
47168;DHT22;32931;47.778;17.806;2022-10-16T05:32:15;14.10;99.90
47168;DHT22;32931;47.778;17.806;2022-10-16T05:34:43;14.10;99.90
47168;DHT22;32931;47.778;17.806;2022-10-16T05:37:09;14.10;99.90
47168;DHT22;32931;47.778;17.806;2022-10-16T05:39:35;14.10;99.90
47168;DHT22;32931;47.778;17.806;2022-10-16T05:42:03;14.10;99.90
47168;DHT22;32931;47.778;17.806;2022-10-16T05:44:29;14.10;99.90
47168;DHT22;32931;47.778;17.806;2022-10-16T05:46:55;14.10;99.90
47168;DHT22;32931;47.778;17.806;2022-10-16T05:49:21;14.10;99.90
47168;DHT22;32931;47.778;17.806;2022-10-16T05:51:47;14.10;99.90
47168;DHT22;32931;47.778;17.806;2022-10-16T05:54:14;14.10;99.90
47168;DHT22;32931;47.778;17.806;2022-10-16T05:56:40;14.10;99.90
47168;DHT22;32931;47.778;17.806;2022-10-16T05:59:06;14.20;99.90
47168;DHT22;32931;47.778;17.806;2022-10-16T06:01:32;14.20;99.90
47168;DHT22;32931;47.778;17.806;2022-10-16T06:03:59;14.20;99.90
47168;DHT22;32931;47.778;17.806;2022-10-16T06:06:26;14.20;99.90
47168;DHT22;32931;47.778;17.806;2022-10-16T06:08:54;14.20;99.90
47168;DHT22;32931;47.778;17.806;2022-10-16T06:11:22;14.20;99.90
47168;DHT22;32931;47.778;17.806;2022-10-16T06:13:50;14.20;99.90
47168;DHT22;32931;47.778;17.806;2022-10-16T06:16:17;14.30;99.90
47168;DHT22;32931;47.778;17.806;2022-10-16T06:18:43;14.30;99.90
47168;DHT22;32931;47.778;17.806;2022-10-16T06:21:22;14.30;99.90
47168;DHT22;32931;47.778;17.806;2022-10-16T06:23:50;14.30;99.90
47168;DHT22;32931;47.778;17.806;2022-10-16T06:26:20;14.40;99.90
47168;DHT22;32931;47.778;17.806;2022-10-16T06:28:47;14.40;99.90
47168;DHT22;32931;47.778;17.806;2022-10-16T06:31:13;14.50;99.90
47168;DHT22;32931;47.778;17.806;2022-10-16T06:33:40;14.40;99.90
47168;DHT22;32931;47.778;17.806;2022-10-16T06:36:07;14.50;99.90
47168;DHT22;32931;47.778;17.806;2022-10-16T06:38:35;14.50;99.90
47168;DHT22;32931;47.778;17.806;2022-10-16T06:41:01;14.60;99.90
47168;DHT22;32931;47.778;17.806;2022-10-16T06:43:29;14.60;99.90
47168;DHT22;32931;47.778;17.806;2022-10-16T06:45:59;14.60;99.90
47168;DHT22;32931;47.778;17.806;2022-10-16T06:48:26;14.70;99.90
47168;DHT22;32931;47.778;17.806;2022-10-16T06:53:30;14.70;99.90
47168;DHT22;32931;47.778;17.806;2022-10-16T06:55:57;14.80;99.90
47168;DHT22;32931;47.778;17.806;2022-10-16T06:58:23;14.80;99.90
47168;DHT22;32931;47.778;17.806;2022-10-16T07:00:55;14.80;99.90
47168;DHT22;32931;47.778;17.806;2022-10-16T07:03:23;14.80;99.90
47168;DHT22;32931;47.778;17.806;2022-10-16T07:05:49;14.90;99.90
47168;DHT22;32931;47.778;17.806;2022-10-16T07:08:15;14.90;99.90
47168;DHT22;32931;47.778;17.806;2022-10-16T07:10:41;14.90;99.90
47168;DHT22;32931;47.778;17.806;2022-10-16T07:13:07;15.00;99.90
47168;DHT22;32931;47.778;17.806;2022-10-16T07:15:34;15.00;99.90
47168;DHT22;32931;47.778;17.806;2022-10-16T07:18:00;15.00;99.90
47168;DHT22;32931;47.778;17.806;2022-10-16T07:20:26;15.10;99.90
47168;DHT22;32931;47.778;17.806;2022-10-16T07:22:52;15.10;99.90
47168;DHT22;32931;47.778;17.806;2022-10-16T07:25:18;15.10;99.90
47168;DHT22;32931;47.778;17.806;2022-10-16T07:27:44;15.20;99.90
47168;DHT22;32931;47.778;17.806;2022-10-16T07:30:11;15.20;99.90
47168;DHT22;32931;47.778;17.806;2022-10-16T07:32:37;15.30;99.90
47168;DHT22;32931;47.778;17.806;2022-10-16T07:35:04;15.40;99.90
47168;DHT22;32931;47.778;17.806;2022-10-16T07:37:30;15.40;99.90
47168;DHT22;32931;47.778;17.806;2022-10-16T07:39:56;15.40;99.90
47168;DHT22;32931;47.778;17.806;2022-10-16T07:42:23;15.50;99.90
47168;DHT22;32931;47.778;17.806;2022-10-16T07:44:49;15.50;99.90
47168;DHT22;32931;47.778;17.806;2022-10-16T07:47:15;15.60;99.90
47168;DHT22;32931;47.778;17.806;2022-10-16T07:49:41;15.60;99.90
47168;DHT22;32931;47.778;17.806;2022-10-16T07:52:07;15.70;99.90
47168;DHT22;32931;47.778;17.806;2022-10-16T07:54:33;15.70;99.90
47168;DHT22;32931;47.778;17.806;2022-10-16T07:56:59;15.80;99.90
47168;DHT22;32931;47.778;17.806;2022-10-16T07:59:26;15.90;99.90
47168;DHT22;32931;47.778;17.806;2022-10-16T08:01:52;15.90;99.90
47168;DHT22;32931;47.778;17.806;2022-10-16T08:04:18;15.90;99.90
47168;DHT22;32931;47.778;17.806;2022-10-16T08:06:44;16.00;99.90
47168;DHT22;32931;47.778;17.806;2022-10-16T08:09:10;16.00;99.90
47168;DHT22;32931;47.778;17.806;2022-10-16T08:11:36;16.00;99.90
47168;DHT22;32931;47.778;17.806;2022-10-16T08:14:02;16.00;99.90
47168;DHT22;32931;47.778;17.806;2022-10-16T08:16:29;16.00;99.90
47168;DHT22;32931;47.778;17.806;2022-10-16T08:18:55;16.10;99.90
47168;DHT22;32931;47.778;17.806;2022-10-16T08:21:22;16.10;99.90
47168;DHT22;32931;47.778;17.806;2022-10-16T08:23:53;16.10;99.90
47168;DHT22;32931;47.778;17.806;2022-10-16T08:26:19;16.20;99.90
47168;DHT22;32931;47.778;17.806;2022-10-16T08:28:45;16.30;99.90
47168;DHT22;32931;47.778;17.806;2022-10-16T08:31:13;16.30;99.90
47168;DHT22;32931;47.778;17.806;2022-10-16T08:33:42;16.40;99.90
47168;DHT22;32931;47.778;17.806;2022-10-16T08:36:10;16.50;99.90
47168;DHT22;32931;47.778;17.806;2022-10-16T08:38:37;16.50;99.90
47168;DHT22;32931;47.778;17.806;2022-10-16T08:49:27;16.90;99.90
47168;DHT22;32931;47.778;17.806;2022-10-16T08:51:53;16.90;99.90
47168;DHT22;32931;47.778;17.806;2022-10-16T08:54:41;17.00;99.90
47168;DHT22;32931;47.778;17.806;2022-10-16T08:57:16;17.10;99.90
47168;DHT22;32931;47.778;17.806;2022-10-16T08:59:43;17.20;99.90
47168;DHT22;32931;47.778;17.806;2022-10-16T09:02:37;17.20;99.90
47168;DHT22;32931;47.778;17.806;2022-10-16T09:08:28;17.40;99.90
47168;DHT22;32931;47.778;17.806;2022-10-16T09:16:38;17.60;99.90
47168;DHT22;32931;47.778;17.806;2022-10-16T09:19:15;17.60;99.90
47168;DHT22;32931;47.778;17.806;2022-10-16T09:21:45;17.60;99.90
47168;DHT22;32931;47.778;17.806;2022-10-16T09:24:15;17.70;99.90
47168;DHT22;32931;47.778;17.806;2022-10-16T09:26:42;17.70;99.90
47168;DHT22;32931;47.778;17.806;2022-10-16T09:29:13;17.70;99.90
47168;DHT22;32931;47.778;17.806;2022-10-16T09:31:40;17.80;99.90
47168;DHT22;32931;47.778;17.806;2022-10-16T09:34:56;17.90;99.90
47168;DHT22;32931;47.778;17.806;2022-10-16T09:36:59;18.00;99.90
47168;DHT22;32931;47.778;17.806;2022-10-16T09:39:27;18.20;99.90
47168;DHT22;32931;47.778;17.806;2022-10-16T09:41:54;18.30;99.90
47168;DHT22;32931;47.778;17.806;2022-10-16T09:44:29;18.40;99.90
47168;DHT22;32931;47.778;17.806;2022-10-16T09:47:13;18.50;99.90
47168;DHT22;32931;47.778;17.806;2022-10-16T09:49:54;18.60;99.90
47168;DHT22;32931;47.778;17.806;2022-10-16T09:52:22;18.70;99.90
47168;DHT22;32931;47.778;17.806;2022-10-16T09:54:52;18.80;99.90
47168;DHT22;32931;47.778;17.806;2022-10-16T09:57:20;18.90;99.90
47168;DHT22;32931;47.778;17.806;2022-10-16T09:59:52;18.90;99.90
47168;DHT22;32931;47.778;17.806;2022-10-16T10:02:23;19.00;99.90
47168;DHT22;32931;47.778;17.806;2022-10-16T10:04:53;19.10;99.90
47168;DHT22;32931;47.778;17.806;2022-10-16T10:07:24;19.10;99.90
47168;DHT22;32931;47.778;17.806;2022-10-16T10:09:51;19.20;99.90
47168;DHT22;32931;47.778;17.806;2022-10-16T10:12:26;19.30;99.90
47168;DHT22;32931;47.778;17.806;2022-10-16T10:15:12;19.40;99.90
47168;DHT22;32931;47.778;17.806;2022-10-16T10:17:53;19.50;99.90
47168;DHT22;32931;47.778;17.806;2022-10-16T10:20:32;19.60;99.90
47168;DHT22;32931;47.778;17.806;2022-10-16T10:23:01;19.60;99.90
47168;DHT22;32931;47.778;17.806;2022-10-16T10:36:45;19.80;99.90
47168;DHT22;32931;47.778;17.806;2022-10-16T10:40:04;19.80;99.90
47168;DHT22;32931;47.778;17.806;2022-10-16T10:42:53;19.80;99.90
47168;DHT22;32931;47.778;17.806;2022-10-16T10:53:40;19.80;99.90
47168;DHT22;32931;47.778;17.806;2022-10-16T11:01:40;19.70;99.90
47168;DHT22;32931;47.778;17.806;2022-10-16T11:07:20;19.70;99.90
47168;DHT22;32931;47.778;17.806;2022-10-16T11:09:59;19.70;99.90
47168;DHT22;32931;47.778;17.806;2022-10-16T11:12:31;19.70;99.90
47168;DHT22;32931;47.778;17.806;2022-10-16T11:17:52;19.60;99.90
47168;DHT22;32931;47.778;17.806;2022-10-16T11:20:30;19.60;99.90
47168;DHT22;32931;47.778;17.806;2022-10-16T11:25:31;19.60;99.90
47168;DHT22;32931;47.778;17.806;2022-10-16T11:28:17;19.60;99.90
47168;DHT22;32931;47.778;17.806;2022-10-16T11:30:50;19.60;99.90
47168;DHT22;32931;47.778;17.806;2022-10-16T11:36:06;19.60;99.90
47168;DHT22;32931;47.778;17.806;2022-10-16T11:39:00;19.50;99.90
47168;DHT22;32931;47.778;17.806;2022-10-16T11:49:41;19.60;99.90
47168;DHT22;32931;47.778;17.806;2022-10-16T11:52:25;19.50;99.90
47168;DHT22;32931;47.778;17.806;2022-10-16T11:55:02;19.60;99.90
47168;DHT22;32931;47.778;17.806;2022-10-16T11:57:33;19.60;99.90
47168;DHT22;32931;47.778;17.806;2022-10-16T12:08:14;19.60;99.90
47168;DHT22;32931;47.778;17.806;2022-10-16T12:10:45;19.60;99.90
47168;DHT22;32931;47.778;17.806;2022-10-16T12:16:07;19.60;99.90
47168;DHT22;32931;47.778;17.806;2022-10-16T12:18:33;19.70;99.90
47168;DHT22;32931;47.778;17.806;2022-10-16T12:21:00;19.70;99.90
47168;DHT22;32931;47.778;17.806;2022-10-16T12:23:52;19.70;99.90
47168;DHT22;32931;47.778;17.806;2022-10-16T12:26:31;19.80;99.90
47168;DHT22;32931;47.778;17.806;2022-10-16T12:31:56;19.80;99.90
47168;DHT22;32931;47.778;17.806;2022-10-16T12:34:38;19.80;99.90
47168;DHT22;32931;47.778;17.806;2022-10-16T12:37:33;19.80;99.90
47168;DHT22;32931;47.778;17.806;2022-10-16T12:40:32;19.80;99.90
47168;DHT22;32931;47.778;17.806;2022-10-16T12:42:58;19.80;99.90
47168;DHT22;32931;47.778;17.806;2022-10-16T12:45:31;19.80;99.90
47168;DHT22;32931;47.778;17.806;2022-10-16T12:48:00;19.80;99.90
47168;DHT22;32931;47.778;17.806;2022-10-16T12:50:29;19.80;99.90
47168;DHT22;32931;47.778;17.806;2022-10-16T12:53:00;19.80;99.90
47168;DHT22;32931;47.778;17.806;2022-10-16T12:55:32;19.80;99.90
47168;DHT22;32931;47.778;17.806;2022-10-16T12:58:09;19.80;99.90
47168;DHT22;32931;47.778;17.806;2022-10-16T13:00:57;19.90;99.90
47168;DHT22;32931;47.778;17.806;2022-10-16T13:17:13;19.90;99.90
47168;DHT22;32931;47.778;17.806;2022-10-16T13:20:03;19.90;99.90
47168;DHT22;32931;47.778;17.806;2022-10-16T13:23:13;19.90;99.90
47168;DHT22;32931;47.778;17.806;2022-10-16T13:28:38;19.90;99.90
47168;DHT22;32931;47.778;17.806;2022-10-16T13:31:05;19.90;99.90
47168;DHT22;32931;47.778;17.806;2022-10-16T13:33:39;19.90;99.90
47168;DHT22;32931;47.778;17.806;2022-10-16T13:36:06;19.90;99.90
47168;DHT22;32931;47.778;17.806;2022-10-16T13:38:35;20.00;99.90
47168;DHT22;32931;47.778;17.806;2022-10-16T13:41:12;20.00;99.90
47168;DHT22;32931;47.778;17.806;2022-10-16T13:43:52;20.00;99.90
47168;DHT22;32931;47.778;17.806;2022-10-16T13:46:21;20.00;99.90
47168;DHT22;32931;47.778;17.806;2022-10-16T13:49:02;20.00;99.90
47168;DHT22;32931;47.778;17.806;2022-10-16T13:51:30;20.10;99.90
47168;DHT22;32931;47.778;17.806;2022-10-16T13:53:57;20.00;99.90
47168;DHT22;32931;47.778;17.806;2022-10-16T13:56:29;20.10;99.90
47168;DHT22;32931;47.778;17.806;2022-10-16T13:59:23;20.10;99.90
47168;DHT22;32931;47.778;17.806;2022-10-16T14:01:51;20.10;99.90
47168;DHT22;32931;47.778;17.806;2022-10-16T14:04:18;20.10;99.90
47168;DHT22;32931;47.778;17.806;2022-10-16T14:06:48;20.10;99.90
47168;DHT22;32931;47.778;17.806;2022-10-16T14:09:31;20.10;99.90
47168;DHT22;32931;47.778;17.806;2022-10-16T14:12:03;20.10;99.90
47168;DHT22;32931;47.778;17.806;2022-10-16T14:14:46;20.10;99.90
47168;DHT22;32931;47.778;17.806;2022-10-16T14:17:14;20.10;99.90
47168;DHT22;32931;47.778;17.806;2022-10-16T14:19:40;20.10;99.90
47168;DHT22;32931;47.778;17.806;2022-10-16T14:22:35;20.10;99.90
47168;DHT22;32931;47.778;17.806;2022-10-16T14:25:29;20.20;99.90
47168;DHT22;32931;47.778;17.806;2022-10-16T14:28:20;20.20;99.90
47168;DHT22;32931;47.778;17.806;2022-10-16T14:30:53;20.20;99.90
47168;DHT22;32931;47.778;17.806;2022-10-16T14:33:23;20.20;99.90
47168;DHT22;32931;47.778;17.806;2022-10-16T14:36:05;20.10;99.90
47168;DHT22;32931;47.778;17.806;2022-10-16T14:38:38;20.20;99.90
47168;DHT22;32931;47.778;17.806;2022-10-16T14:41:05;20.20;99.90
47168;DHT22;32931;47.778;17.806;2022-10-16T14:46:02;20.10;99.90
47168;DHT22;32931;47.778;17.806;2022-10-16T14:48:29;20.20;99.90
47168;DHT22;32931;47.778;17.806;2022-10-16T14:50:56;20.20;99.90
47168;DHT22;32931;47.778;17.806;2022-10-16T14:53:22;20.20;99.90
47168;DHT22;32931;47.778;17.806;2022-10-16T14:55:48;20.10;99.90
47168;DHT22;32931;47.778;17.806;2022-10-16T14:58:15;20.20;99.90
47168;DHT22;32931;47.778;17.806;2022-10-16T15:00:42;20.20;99.90
47168;DHT22;32931;47.778;17.806;2022-10-16T15:03:08;20.10;99.90
47168;DHT22;32931;47.778;17.806;2022-10-16T15:05:34;20.10;99.90
47168;DHT22;32931;47.778;17.806;2022-10-16T15:08:01;20.10;99.90
47168;DHT22;32931;47.778;17.806;2022-10-16T15:10:28;20.10;99.90
47168;DHT22;32931;47.778;17.806;2022-10-16T15:12:55;20.10;99.90
47168;DHT22;32931;47.778;17.806;2022-10-16T15:15:30;20.10;99.90
47168;DHT22;32931;47.778;17.806;2022-10-16T15:17:58;20.10;99.90
47168;DHT22;32931;47.778;17.806;2022-10-16T15:20:31;20.00;99.90
47168;DHT22;32931;47.778;17.806;2022-10-16T15:23:00;20.00;99.90
47168;DHT22;32931;47.778;17.806;2022-10-16T15:25:59;19.90;99.90
47168;DHT22;32931;47.778;17.806;2022-10-16T15:28:25;19.90;99.90
47168;DHT22;32931;47.778;17.806;2022-10-16T15:30:54;19.90;99.90
47168;DHT22;32931;47.778;17.806;2022-10-16T15:33:25;19.90;99.90
47168;DHT22;32931;47.778;17.806;2022-10-16T15:35:54;19.80;99.90
47168;DHT22;32931;47.778;17.806;2022-10-16T15:38:21;19.80;99.90
47168;DHT22;32931;47.778;17.806;2022-10-16T15:40:48;19.80;99.90
47168;DHT22;32931;47.778;17.806;2022-10-16T15:43:15;19.80;99.90
47168;DHT22;32931;47.778;17.806;2022-10-16T15:45:41;19.80;99.90
47168;DHT22;32931;47.778;17.806;2022-10-16T15:48:11;19.80;99.90
47168;DHT22;32931;47.778;17.806;2022-10-16T15:50:39;19.70;99.90
47168;DHT22;32931;47.778;17.806;2022-10-16T15:53:05;19.70;99.90
47168;DHT22;32931;47.778;17.806;2022-10-16T15:55:33;19.70;99.90
47168;DHT22;32931;47.778;17.806;2022-10-16T15:58:00;19.60;99.90
47168;DHT22;32931;47.778;17.806;2022-10-16T16:00:26;19.60;99.90
47168;DHT22;32931;47.778;17.806;2022-10-16T16:02:53;19.60;99.90
47168;DHT22;32931;47.778;17.806;2022-10-16T16:05:20;19.60;99.90
47168;DHT22;32931;47.778;17.806;2022-10-16T16:07:47;19.50;99.90
47168;DHT22;32931;47.778;17.806;2022-10-16T16:10:13;19.50;99.90
47168;DHT22;32931;47.778;17.806;2022-10-16T16:12:40;19.50;99.90
47168;DHT22;32931;47.778;17.806;2022-10-16T16:15:08;19.50;99.90
47168;DHT22;32931;47.778;17.806;2022-10-16T16:17:35;19.40;99.90
47168;DHT22;32931;47.778;17.806;2022-10-16T16:20:01;19.40;99.90
47168;DHT22;32931;47.778;17.806;2022-10-16T16:22:28;19.30;99.90
47168;DHT22;32931;47.778;17.806;2022-10-16T16:24:54;19.30;99.90
47168;DHT22;32931;47.778;17.806;2022-10-16T16:27:20;19.30;99.90
47168;DHT22;32931;47.778;17.806;2022-10-16T16:29:47;19.30;99.90
47168;DHT22;32931;47.778;17.806;2022-10-16T16:32:13;19.30;99.90
47168;DHT22;32931;47.778;17.806;2022-10-16T16:34:39;19.20;99.90
47168;DHT22;32931;47.778;17.806;2022-10-16T16:37:05;19.20;99.90
47168;DHT22;32931;47.778;17.806;2022-10-16T16:39:31;19.20;99.90
47168;DHT22;32931;47.778;17.806;2022-10-16T16:41:58;19.20;99.90
47168;DHT22;32931;47.778;17.806;2022-10-16T16:44:28;19.10;99.90
47168;DHT22;32931;47.778;17.806;2022-10-16T16:46:54;19.20;99.90
47168;DHT22;32931;47.778;17.806;2022-10-16T16:49:21;19.10;99.90
47168;DHT22;32931;47.778;17.806;2022-10-16T16:51:47;19.10;99.90
47168;DHT22;32931;47.778;17.806;2022-10-16T16:54:13;19.10;99.90
47168;DHT22;32931;47.778;17.806;2022-10-16T16:56:40;19.10;99.90
47168;DHT22;32931;47.778;17.806;2022-10-16T16:59:18;19.00;99.90
47168;DHT22;32931;47.778;17.806;2022-10-16T17:01:46;19.00;99.90
47168;DHT22;32931;47.778;17.806;2022-10-16T17:04:13;19.00;99.90
47168;DHT22;32931;47.778;17.806;2022-10-16T17:06:41;18.90;99.90
47168;DHT22;32931;47.778;17.806;2022-10-16T17:09:08;18.90;99.90
47168;DHT22;32931;47.778;17.806;2022-10-16T17:11:35;18.90;99.90
47168;DHT22;32931;47.778;17.806;2022-10-16T17:14:02;18.90;99.90
47168;DHT22;32931;47.778;17.806;2022-10-16T17:16:33;18.80;99.90
47168;DHT22;32931;47.778;17.806;2022-10-16T17:19:02;18.80;99.90
47168;DHT22;32931;47.778;17.806;2022-10-16T17:21:29;18.70;99.90
47168;DHT22;32931;47.778;17.806;2022-10-16T17:23:56;18.70;99.90
47168;DHT22;32931;47.778;17.806;2022-10-16T17:26:22;18.70;99.90
47168;DHT22;32931;47.778;17.806;2022-10-16T17:28:53;18.70;99.90
47168;DHT22;32931;47.778;17.806;2022-10-16T17:31:25;18.70;99.90